createdAt,value
2019-03-04T00:02:27.958Z,0.90
2019-03-04T00:04:56.523Z,0.90
2019-03-04T00:07:25.094Z,0.90
2019-03-04T00:09:53.647Z,1.00
2019-03-04T00:12:22.234Z,1.30
2019-03-04T00:14:50.807Z,0.93
2019-03-04T00:17:19.368Z,1.00
2019-03-04T00:19:48.134Z,1.00
2019-03-04T00:22:16.682Z,1.00
2019-03-04T00:24:45.241Z,1.00
2019-03-04T00:27:13.950Z,0.97
2019-03-04T00:29:42.611Z,0.90
2019-03-04T00:32:11.158Z,1.00
2019-03-04T00:34:39.794Z,1.00
2019-03-04T00:37:08.410Z,1.07
2019-03-04T00:39:36.953Z,1.00
2019-03-04T00:42:05.576Z,1.10
2019-03-04T00:44:34.150Z,1.00
2019-03-04T00:47:02.714Z,1.00
2019-03-04T00:49:31.311Z,1.00
2019-03-04T00:51:59.911Z,1.00
2019-03-04T00:54:28.459Z,1.00
2019-03-04T00:56:57.049Z,1.00
2019-03-04T00:59:25.663Z,1.10
2019-03-04T01:01:54.266Z,1.00
2019-03-04T01:04:22.873Z,1.10
2019-03-04T01:06:51.441Z,1.03
2019-03-04T01:09:20.001Z,1.10
2019-03-04T01:11:48.608Z,1.00
2019-03-04T01:14:17.178Z,0.97
2019-03-04T01:16:45.700Z,1.00
2019-03-04T01:19:14.347Z,0.90
2019-03-04T01:21:42.902Z,1.00
2019-03-04T01:24:11.404Z,0.90
2019-03-04T01:26:39.990Z,0.93
2019-03-04T01:29:08.537Z,1.00
2019-03-04T01:31:37.120Z,1.10
2019-03-04T01:34:05.762Z,0.90
2019-03-04T01:36:35.046Z,0.90
2019-03-04T01:39:04.727Z,1.10
2019-03-04T01:41:33.301Z,1.00
2019-03-04T01:44:01.863Z,1.00
2019-03-04T01:46:30.425Z,0.93
2019-03-04T01:48:59.023Z,1.00
2019-03-04T01:51:27.584Z,1.00
2019-03-04T01:53:56.140Z,1.10
2019-03-04T01:56:24.738Z,1.10
2019-03-04T01:58:53.306Z,1.00
2019-03-04T02:01:21.910Z,0.90
2019-03-04T02:03:50.990Z,1.10
2019-03-04T02:06:19.632Z,1.40
2019-03-04T02:08:48.191Z,1.00
2019-03-04T02:11:16.767Z,1.00
2019-03-04T02:13:45.316Z,1.10
2019-03-04T02:16:13.890Z,1.10
2019-03-04T02:18:42.474Z,1.00
2019-03-04T02:21:11.058Z,1.00
2019-03-04T02:23:39.626Z,1.00
2019-03-04T02:26:13.432Z,1.10
2019-03-04T02:28:41.986Z,1.10
2019-03-04T02:31:10.551Z,1.00
2019-03-04T02:33:39.131Z,1.10
2019-03-04T02:36:07.710Z,1.10
2019-03-04T02:38:36.279Z,1.00
2019-03-04T02:41:04.874Z,1.00
2019-03-04T02:43:33.441Z,1.20
2019-03-04T02:46:02.022Z,0.90
2019-03-04T02:48:30.630Z,1.10
2019-03-04T02:50:59.251Z,1.03
2019-03-04T02:53:27.862Z,1.00
2019-03-04T02:55:56.469Z,1.10
2019-03-04T02:58:25.107Z,1.10
2019-03-04T03:00:53.678Z,1.10
2019-03-04T03:03:22.337Z,1.10
2019-03-04T03:05:50.988Z,1.10
2019-03-04T03:08:19.543Z,1.10
2019-03-04T03:10:48.231Z,1.20
2019-03-04T03:13:16.795Z,1.00
2019-03-04T03:15:45.370Z,1.10
2019-03-04T03:18:14.022Z,1.20
2019-03-04T03:20:42.601Z,1.10
2019-03-04T03:23:11.176Z,1.10
2019-03-04T03:25:39.761Z,1.10
2019-03-04T03:28:08.398Z,1.10
2019-03-04T03:30:36.980Z,1.10
2019-03-04T03:33:05.558Z,1.03
2019-03-04T03:35:34.108Z,1.10
2019-03-04T03:38:02.787Z,1.10
2019-03-04T03:40:31.451Z,1.00
2019-03-04T03:42:59.979Z,1.20
2019-03-04T03:45:28.610Z,1.10
2019-03-04T03:47:57.257Z,1.10
2019-03-04T03:50:25.829Z,1.00
2019-03-04T03:52:54.439Z,1.20
2019-03-04T03:55:23.120Z,1.20
2019-03-04T03:57:51.678Z,1.10
2019-03-04T04:00:20.356Z,1.00
2019-03-04T04:02:49.169Z,1.20
2019-03-04T04:05:17.790Z,1.10
2019-03-04T04:07:46.390Z,1.17
2019-03-04T04:10:14.955Z,1.30
2019-03-04T04:12:43.926Z,1.10
2019-03-04T04:15:12.527Z,1.30
2019-03-04T04:17:41.138Z,1.20
2019-03-04T04:20:09.696Z,1.20
2019-03-04T04:22:38.279Z,1.10
2019-03-04T04:25:07.396Z,1.30
2019-03-04T04:27:35.965Z,1.10
2019-03-04T04:30:04.667Z,1.47
2019-03-04T04:32:33.367Z,1.43
2019-03-04T04:35:01.950Z,1.50
2019-03-04T04:37:30.520Z,1.50
2019-03-04T04:39:59.078Z,1.30
2019-03-04T04:42:27.698Z,1.50
2019-03-04T04:44:56.283Z,1.50
2019-03-04T04:47:24.850Z,1.30
2019-03-04T04:49:53.474Z,1.40
2019-03-04T04:52:23.348Z,1.50
2019-03-04T04:54:52.098Z,1.40
2019-03-04T04:57:20.645Z,1.50
2019-03-04T04:59:49.343Z,1.50
2019-03-04T05:02:17.894Z,1.50
2019-03-04T05:04:46.499Z,1.50
2019-03-04T05:07:15.126Z,1.50
2019-03-04T05:09:43.753Z,1.50
2019-03-04T05:12:12.306Z,1.90
2019-03-04T05:14:40.927Z,1.67
2019-03-04T05:17:09.520Z,1.80
2019-03-04T05:19:38.081Z,1.50
2019-03-04T05:22:06.642Z,1.50
2019-03-04T05:24:35.248Z,1.57
2019-03-04T05:27:03.791Z,1.60
2019-03-04T05:29:32.417Z,1.57
2019-03-04T05:32:20.206Z,1.60
2019-03-04T05:34:48.895Z,1.90
2019-03-04T05:37:17.449Z,1.90
2019-03-04T05:39:46.007Z,1.60
2019-03-04T05:42:14.606Z,1.60
2019-03-04T05:44:43.181Z,2.07
2019-03-04T05:47:11.838Z,2.00
2019-03-04T05:49:40.399Z,1.60
2019-03-04T05:52:08.956Z,1.70
2019-03-04T05:54:37.506Z,2.00
2019-03-04T05:57:06.085Z,1.70
2019-03-04T05:59:34.622Z,1.70
2019-03-04T06:02:09.826Z,2.20
2019-03-04T06:04:38.887Z,1.67
2019-03-04T06:07:11.026Z,1.90
2019-03-04T06:09:39.650Z,1.60
2019-03-04T06:12:08.215Z,1.50
2019-03-04T06:14:36.791Z,2.00
2019-03-04T06:17:05.365Z,2.10
2019-03-04T06:19:33.965Z,1.60
2019-03-04T06:22:02.518Z,1.73
2019-03-04T06:24:31.082Z,2.10
2019-03-04T06:26:59.630Z,2.00
2019-03-04T06:29:28.186Z,1.70
2019-03-04T06:31:56.774Z,2.00
2019-03-04T06:34:25.390Z,1.67
2019-03-04T06:36:54.013Z,2.10
2019-03-04T06:39:22.581Z,1.60
2019-03-04T06:41:51.174Z,1.53
2019-03-04T06:44:19.744Z,1.60
2019-03-04T06:46:48.224Z,1.60
2019-03-04T06:49:16.785Z,1.93
2019-03-04T06:51:46.286Z,1.70
2019-03-04T06:54:32.897Z,1.33
2019-03-04T06:57:06.631Z,1.70
2019-03-04T06:59:51.027Z,1.63
2019-03-04T07:02:19.618Z,1.67
2019-03-04T07:05:07.405Z,1.63
2019-03-04T07:07:35.937Z,1.70
2019-03-04T07:10:04.699Z,1.60
2019-03-04T07:12:33.303Z,1.83
2019-03-04T07:15:01.851Z,2.20
2019-03-04T07:17:30.426Z,1.60
2019-03-04T07:20:03.074Z,2.40
2019-03-04T07:22:31.658Z,1.80
2019-03-04T07:25:00.339Z,1.70
2019-03-04T07:27:28.922Z,2.30
2019-03-04T07:29:57.498Z,1.77
2019-03-04T07:32:26.065Z,1.80
2019-03-04T07:34:54.723Z,1.80
2019-03-04T07:37:23.304Z,2.67
2019-03-04T07:39:51.862Z,2.30
2019-03-04T07:42:20.423Z,1.90
2019-03-04T07:44:48.993Z,2.30
2019-03-04T07:47:17.542Z,1.97
2019-03-04T07:49:47.618Z,2.70
2019-03-04T07:52:16.196Z,2.37
2019-03-04T07:54:44.738Z,2.00
2019-03-04T07:57:13.291Z,1.77
2019-03-04T07:59:41.862Z,2.10
2019-03-04T08:02:10.434Z,1.83
2019-03-04T08:04:39.009Z,2.20
2019-03-04T08:07:25.346Z,2.50
2019-03-04T08:10:13.994Z,1.93
2019-03-04T08:13:00.742Z,1.83
2019-03-04T08:15:36.567Z,1.70
2019-03-04T08:18:05.184Z,2.20
2019-03-04T08:20:33.731Z,2.30
2019-03-04T08:23:02.323Z,1.67
2019-03-04T08:25:30.958Z,2.50
2019-03-04T08:27:59.531Z,2.40
2019-03-04T08:30:28.111Z,2.00
2019-03-04T08:32:56.706Z,1.80
2019-03-04T08:35:25.307Z,1.60
2019-03-04T08:37:53.926Z,2.03
2019-03-04T08:40:22.540Z,2.30
2019-03-04T08:42:51.093Z,2.60
2019-03-04T08:45:19.669Z,2.20
2019-03-04T08:47:48.292Z,2.27
2019-03-04T08:50:17.025Z,1.83
2019-03-04T08:52:45.580Z,2.30
2019-03-04T08:55:14.759Z,1.80
2019-03-04T08:57:43.406Z,2.27
2019-03-04T09:00:16.212Z,2.10
2019-03-04T09:02:44.787Z,1.80
2019-03-04T09:05:32.539Z,2.50
2019-03-04T09:08:01.151Z,1.90
2019-03-04T09:10:30.086Z,1.80
2019-03-04T09:12:58.675Z,1.90
2019-03-04T09:15:28.015Z,2.20
2019-03-04T09:17:56.567Z,1.60
2019-03-04T09:20:25.150Z,2.30
2019-03-04T09:22:54.118Z,1.80
2019-03-04T09:25:30.425Z,1.63
2019-03-04T09:27:54.508Z,1.60
2019-03-04T09:30:23.063Z,2.10
2019-03-04T09:32:51.606Z,1.50
2019-03-04T09:35:20.204Z,1.80
2019-03-04T09:37:48.715Z,1.70
2019-03-04T09:40:17.269Z,1.80
2019-03-04T09:42:46.063Z,1.70
2019-03-04T09:45:14.859Z,2.40
2019-03-04T09:47:43.445Z,2.20
2019-03-04T09:50:13.235Z,2.10
2019-03-04T09:52:41.838Z,2.50
2019-03-04T09:55:10.676Z,2.30
2019-03-04T09:57:39.237Z,1.70
2019-03-04T10:00:24.458Z,2.20
2019-03-04T10:02:53.119Z,2.50
2019-03-04T10:05:30.960Z,2.10
2019-03-04T10:08:02.139Z,2.20
2019-03-04T10:10:52.097Z,2.20
2019-03-04T10:13:36.245Z,2.50
2019-03-04T10:16:18.745Z,2.20
2019-03-04T10:19:06.157Z,1.70
2019-03-04T10:21:42.051Z,2.20
2019-03-04T10:24:41.918Z,1.90
2019-03-04T10:27:29.687Z,2.30
2019-03-04T10:30:10.334Z,1.50
2019-03-04T10:32:45.705Z,1.70
2019-03-04T10:35:19.900Z,1.70
2019-03-04T10:38:23.060Z,2.50
2019-03-04T10:40:53.814Z,1.70
2019-03-04T10:43:40.067Z,1.80
2019-03-04T10:46:33.879Z,1.80
2019-03-04T10:49:02.452Z,1.70
2019-03-04T10:51:30.999Z,1.70
2019-03-04T10:53:59.704Z,2.30
2019-03-04T10:56:28.282Z,1.80
2019-03-04T10:58:56.920Z,2.30
2019-03-04T11:01:30.420Z,1.80
2019-03-04T11:03:55.842Z,1.67
2019-03-04T11:06:24.414Z,1.90
2019-03-04T11:08:53.019Z,1.70
2019-03-04T11:11:29.568Z,1.70
2019-03-04T11:13:51.871Z,1.90
2019-03-04T11:16:20.420Z,1.90
2019-03-04T11:18:48.984Z,1.70
2019-03-04T11:21:17.533Z,1.97
2019-03-04T11:23:46.101Z,2.30
2019-03-04T11:26:14.705Z,2.17
2019-03-04T11:28:43.256Z,1.80
2019-03-04T11:31:11.830Z,1.60
2019-03-04T11:33:40.404Z,2.50
2019-03-04T11:36:08.979Z,2.20
2019-03-04T11:38:38.785Z,2.20
2019-03-04T11:41:08.001Z,2.20
2019-03-04T11:43:36.575Z,1.80
2019-03-04T11:46:05.127Z,1.60
2019-03-04T11:48:33.750Z,1.63
2019-03-04T11:51:02.325Z,2.17
2019-03-04T11:53:30.882Z,2.10
2019-03-04T11:55:59.568Z,1.70
2019-03-04T11:58:28.149Z,1.80
2019-03-04T12:01:02.276Z,1.80
2019-03-04T12:03:30.842Z,1.80
2019-03-04T12:05:59.458Z,1.90
2019-03-04T12:08:28.062Z,1.70
2019-03-04T12:10:56.635Z,2.00
2019-03-04T12:13:25.194Z,1.70
2019-03-04T12:15:53.778Z,1.77
2019-03-04T12:18:22.354Z,1.70
2019-03-04T12:20:50.953Z,1.90
2019-03-04T12:23:19.547Z,1.60
2019-03-04T12:25:48.090Z,1.63
2019-03-04T12:28:17.970Z,1.80
2019-03-04T12:30:46.531Z,1.60
2019-03-04T12:33:15.109Z,1.80
2019-03-04T12:35:43.713Z,2.17
2019-03-04T12:38:12.283Z,1.70
2019-03-04T12:40:40.834Z,1.53
2019-03-04T12:43:09.431Z,1.70
2019-03-04T12:45:38.935Z,2.20
2019-03-04T12:48:07.657Z,2.30
2019-03-04T12:50:36.316Z,2.20
2019-03-04T12:53:04.918Z,1.60
2019-03-04T12:55:33.494Z,1.60
2019-03-04T12:58:02.045Z,1.80
2019-03-04T13:00:30.603Z,1.70
2019-03-04T13:02:59.203Z,1.60
2019-03-04T13:05:27.820Z,2.10
2019-03-04T13:07:56.422Z,2.10
2019-03-04T13:10:26.562Z,1.70
2019-03-04T13:12:55.128Z,1.70
2019-03-04T13:15:23.863Z,1.67
2019-03-04T13:17:52.436Z,1.97
2019-03-04T13:20:21.075Z,2.00
2019-03-04T13:22:49.609Z,1.80
2019-03-04T13:25:18.182Z,1.77
2019-03-04T13:27:46.822Z,1.60
2019-03-04T13:30:19.040Z,2.00
2019-03-04T13:32:47.604Z,1.70
2019-03-04T13:35:24.113Z,1.80
2019-03-04T13:37:49.070Z,2.07
2019-03-04T13:40:17.649Z,1.43
2019-03-04T13:42:46.205Z,1.70
2019-03-04T13:45:14.811Z,1.70
2019-03-04T13:47:43.418Z,1.60
2019-03-04T13:50:13.392Z,1.77
2019-03-04T13:52:41.939Z,1.70
2019-03-04T13:55:10.549Z,1.60
2019-03-04T13:57:39.115Z,1.60
2019-03-04T14:00:10.027Z,1.80
2019-03-04T14:02:38.701Z,1.70
2019-03-04T14:05:07.496Z,1.77
2019-03-04T14:07:36.062Z,1.70
2019-03-04T14:10:05.102Z,1.70
2019-03-04T14:12:33.663Z,1.60
2019-03-04T14:15:02.212Z,1.70
2019-03-04T14:17:30.790Z,1.63
2019-03-04T14:19:59.341Z,1.60
2019-03-04T14:22:27.927Z,1.80
2019-03-04T14:24:56.563Z,1.60
2019-03-04T14:27:25.114Z,1.60
2019-03-04T14:29:53.905Z,1.63
2019-03-04T14:32:22.486Z,1.60
2019-03-04T14:34:51.027Z,1.70
2019-03-04T14:37:21.803Z,1.80
2019-03-04T14:39:49.961Z,2.20
2019-03-04T14:42:18.516Z,1.70
2019-03-04T14:44:47.101Z,1.73
2019-03-04T14:47:15.709Z,2.17
2019-03-04T14:49:44.977Z,1.70
2019-03-04T14:52:13.923Z,2.10
2019-03-04T14:54:42.489Z,2.47
2019-03-04T14:57:11.039Z,1.67
2019-03-04T14:59:39.510Z,1.70
2019-03-04T15:02:08.092Z,1.70
2019-03-04T15:04:36.648Z,1.70
2019-03-04T15:07:05.214Z,1.70
2019-03-04T15:09:33.833Z,1.70
2019-03-04T15:12:02.405Z,1.90
2019-03-04T15:14:30.985Z,2.10
2019-03-04T15:17:03.252Z,1.80
2019-03-04T15:19:32.456Z,1.70
2019-03-04T15:22:01.167Z,1.80
2019-03-04T15:24:29.776Z,1.77
2019-03-04T15:26:58.418Z,1.60
2019-03-04T15:29:27.047Z,1.70
2019-03-04T15:31:55.644Z,1.70
2019-03-04T15:34:24.354Z,1.80
2019-03-04T15:36:52.936Z,1.70
2019-03-04T15:39:23.136Z,2.10
2019-03-04T15:41:51.895Z,1.70
2019-03-04T15:44:20.598Z,2.13
2019-03-04T15:46:49.231Z,1.60
2019-03-04T15:49:17.807Z,2.10
2019-03-04T15:51:46.382Z,1.40
2019-03-04T15:54:14.958Z,1.40
2019-03-04T15:56:43.531Z,2.03
2019-03-04T15:59:12.134Z,1.63
2019-03-04T16:01:40.705Z,1.60
2019-03-04T16:04:09.290Z,1.80
2019-03-04T16:06:37.880Z,1.70
2019-03-04T16:09:11.273Z,1.80
2019-03-04T16:11:39.859Z,1.63
2019-03-04T16:14:08.426Z,1.73
2019-03-04T16:16:37.065Z,2.07
2019-03-04T16:19:05.648Z,1.70
2019-03-04T16:21:34.222Z,1.80
2019-03-04T16:24:02.880Z,1.63
2019-03-04T16:26:31.467Z,1.80
2019-03-04T16:29:00.106Z,1.80
2019-03-04T16:31:28.846Z,2.20
2019-03-04T16:33:57.436Z,2.10
2019-03-04T16:36:26.016Z,2.00
2019-03-04T16:38:54.644Z,1.53
2019-03-04T16:41:23.234Z,2.10
2019-03-04T16:43:51.888Z,1.60
2019-03-04T16:46:20.650Z,2.10
2019-03-04T16:48:49.463Z,1.73
2019-03-04T16:51:18.269Z,1.70
2019-03-04T16:53:46.870Z,1.70
2019-03-04T16:56:15.539Z,1.60
2019-03-04T16:58:44.164Z,1.70
2019-03-04T17:01:12.796Z,1.60
2019-03-04T17:03:41.634Z,1.80
2019-03-04T17:06:10.401Z,1.60
2019-03-04T17:08:38.928Z,1.80
2019-03-04T17:11:07.525Z,1.63
2019-03-04T17:13:36.130Z,1.67
2019-03-04T17:16:04.722Z,1.70
2019-03-04T17:18:33.663Z,1.70
2019-03-04T17:21:02.635Z,2.20
2019-03-04T17:23:31.200Z,1.67
2019-03-04T17:25:59.827Z,1.60
2019-03-04T17:28:28.326Z,2.10
2019-03-04T17:30:56.922Z,1.70
2019-03-04T17:33:25.513Z,1.70
2019-03-04T17:35:54.092Z,1.80
2019-03-04T17:38:22.658Z,1.80
2019-03-04T17:40:51.241Z,1.60
2019-03-04T17:43:19.835Z,2.20
2019-03-04T17:45:48.438Z,1.80
2019-03-04T17:48:36.214Z,2.27
2019-03-04T17:51:06.274Z,1.80
2019-03-04T17:53:34.980Z,2.07
2019-03-04T17:56:03.601Z,2.00
2019-03-04T17:58:33.814Z,2.20
2019-03-04T18:01:02.375Z,1.80
2019-03-04T18:03:30.969Z,1.80
2019-03-04T18:05:59.510Z,2.17
2019-03-04T18:08:28.073Z,2.10
2019-03-04T18:10:56.684Z,2.10
2019-03-04T18:13:25.244Z,2.10
2019-03-04T18:15:53.797Z,2.10
2019-03-04T18:18:22.385Z,1.80
2019-03-04T18:20:50.966Z,1.70
2019-03-04T18:23:19.531Z,1.80
2019-03-04T18:25:56.236Z,2.10
2019-03-04T18:28:32.611Z,1.70
2019-03-04T18:31:07.358Z,2.10
2019-03-04T18:33:43.490Z,1.70
2019-03-04T18:36:18.060Z,2.20
2019-03-04T18:38:54.199Z,2.20
2019-03-04T18:41:32.735Z,2.03
2019-03-04T18:44:29.375Z,2.13
2019-03-04T18:47:09.070Z,1.70
2019-03-04T18:49:37.770Z,2.07
2019-03-04T18:52:06.547Z,1.80
2019-03-04T18:54:35.220Z,1.43
2019-03-04T18:57:04.154Z,1.83
2019-03-04T18:59:32.961Z,2.10
2019-03-04T19:02:01.702Z,2.00
2019-03-04T19:04:30.323Z,2.00
2019-03-04T19:06:58.980Z,2.03
2019-03-04T19:09:27.917Z,1.70
2019-03-04T19:11:56.609Z,2.00
2019-03-04T19:14:25.312Z,1.80
2019-03-04T19:16:54.058Z,1.90
2019-03-04T19:19:22.630Z,1.70
2019-03-04T19:21:51.227Z,2.10
2019-03-04T19:24:20.343Z,1.50
2019-03-04T19:26:49.546Z,1.90
2019-03-04T19:29:18.617Z,2.10
2019-03-04T19:31:47.282Z,2.20
2019-03-04T19:34:17.353Z,1.80
2019-03-04T19:36:46.190Z,2.10
2019-03-04T19:39:14.779Z,1.70
2019-03-04T19:41:43.405Z,2.20
2019-03-04T19:44:11.974Z,1.80
2019-03-04T19:46:40.541Z,2.00
2019-03-04T19:49:09.106Z,1.77
2019-03-04T19:51:37.712Z,2.10
2019-03-04T19:54:06.358Z,1.50
2019-03-04T19:56:34.938Z,1.57
2019-03-04T19:59:03.515Z,1.60
2019-03-04T20:01:32.162Z,2.00
2019-03-04T20:04:00.864Z,2.10
2019-03-04T20:06:29.607Z,1.90
2019-03-04T20:08:58.241Z,2.20
2019-03-04T20:11:26.917Z,2.00
2019-03-04T20:13:55.515Z,2.00
2019-03-04T20:16:24.556Z,2.00
2019-03-04T20:18:53.119Z,1.87
2019-03-04T20:21:21.694Z,1.97
2019-03-04T20:23:50.932Z,1.87
2019-03-04T20:26:19.496Z,1.90
2019-03-04T20:28:48.060Z,2.00
2019-03-04T20:31:16.633Z,1.60
2019-03-04T20:33:45.236Z,1.70
2019-03-04T20:36:13.866Z,1.70
2019-03-04T20:38:43.877Z,2.20
2019-03-04T20:41:12.466Z,1.50
2019-03-04T20:43:41.634Z,2.00
2019-03-04T20:46:10.269Z,2.03
2019-03-04T20:48:38.860Z,2.07
2019-03-04T20:51:07.431Z,1.50
2019-03-04T20:53:36.047Z,1.50
2019-03-04T20:56:04.639Z,1.90
2019-03-04T20:58:33.208Z,1.60
2019-03-04T21:01:01.799Z,2.07
2019-03-04T21:03:34.829Z,1.60
2019-03-04T21:06:00.891Z,2.10
2019-03-04T21:08:30.030Z,1.60
2019-03-04T21:10:58.610Z,1.60
2019-03-04T21:13:35.263Z,1.60
2019-03-04T21:15:57.516Z,2.10
2019-03-04T21:18:26.077Z,1.40
2019-03-04T21:20:54.651Z,2.20
2019-03-04T21:23:23.228Z,1.90
2019-03-04T21:25:56.426Z,2.20
2019-03-04T21:28:30.235Z,2.23
2019-03-04T21:31:07.290Z,1.50
2019-03-04T21:33:44.094Z,2.00
2019-03-04T21:36:29.443Z,2.00
2019-03-04T21:38:58.591Z,1.70
2019-03-04T21:41:32.866Z,2.10
2019-03-04T21:44:22.391Z,1.80
2019-03-04T21:47:02.220Z,2.10
2019-03-04T21:49:32.147Z,2.10
2019-03-04T21:52:08.003Z,2.20
2019-03-04T21:54:36.615Z,1.80
2019-03-04T21:57:10.802Z,2.20
2019-03-04T21:59:39.440Z,1.70
2019-03-04T22:02:09.769Z,1.80
2019-03-04T22:04:38.687Z,1.70
2019-03-04T22:07:07.550Z,2.10
2019-03-04T22:09:36.179Z,2.30
2019-03-04T22:12:04.948Z,2.00
2019-03-04T22:14:33.616Z,2.17
2019-03-04T22:17:02.184Z,2.20
2019-03-04T22:19:30.767Z,2.10
2019-03-04T22:21:59.429Z,1.70
2019-03-04T22:24:28.018Z,2.20
2019-03-04T22:26:56.598Z,1.70
2019-03-04T22:29:25.202Z,2.10
2019-03-04T22:31:53.835Z,1.60
2019-03-04T22:34:22.422Z,2.10
2019-03-04T22:36:51.135Z,1.70
2019-03-04T22:39:19.686Z,1.70
2019-03-04T22:41:48.255Z,2.30
2019-03-04T22:44:16.845Z,1.77
2019-03-04T22:46:45.494Z,1.80
2019-03-04T22:49:14.142Z,2.20
2019-03-04T22:51:42.751Z,2.13
2019-03-04T22:54:11.649Z,2.40
2019-03-04T22:56:40.298Z,1.80
2019-03-04T22:59:08.850Z,2.50
2019-03-04T23:01:40.116Z,2.50
2019-03-04T23:04:21.883Z,2.37
2019-03-04T23:06:52.315Z,1.70
2019-03-04T23:09:21.079Z,2.33
2019-03-04T23:11:52.415Z,2.30
2019-03-04T23:14:23.402Z,2.23
2019-03-04T23:16:51.953Z,2.20
2019-03-04T23:19:20.534Z,2.27
2019-03-04T23:21:49.111Z,2.03
2019-03-04T23:24:17.711Z,1.70
2019-03-04T23:26:46.263Z,1.70
2019-03-04T23:29:14.882Z,2.37
2019-03-04T23:31:43.450Z,1.70
2019-03-04T23:34:12.038Z,1.80
2019-03-04T23:36:40.622Z,1.80
2019-03-04T23:39:09.178Z,2.27
2019-03-04T23:41:37.731Z,1.70
2019-03-04T23:44:06.324Z,2.10
2019-03-04T23:46:34.942Z,1.80
2019-03-04T23:49:03.617Z,2.27
2019-03-04T23:51:32.169Z,2.40
2019-03-04T23:54:00.782Z,2.30
2019-03-04T23:56:29.391Z,2.30
2019-03-04T23:58:57.979Z,2.40
